Time;durP1;ratioP1;P1;durP2;ratioP2;P2;SDS_P1;SDS_P2;PMS_P1;PMS_P2;Temp;Humidity;BMP_temperature;BMP_pressure;BME280_temperature;BME280_humidity;BME280_pressure;Samples;Min_cycle;Max_cycle;Signal;HPM_P1;HPM_P2
2024/04/03 00:01:41;;;;;;;10.15;2.55;;;;;;;;;;5030272;28;20052;-28
2024/04/03 00:04:08;;;;;;;14.55;2.47;;;;;;;;;;5031536;28;20040;-31
2024/04/03 00:06:35;;;;;;;8.52;2.25;;;;;;;;;;5031543;28;20037;-31
2024/04/03 00:09:02;;;;;;;14.75;2.40;;;;;;;;;;5031639;28;20064;-28
2024/04/03 00:11:29;;;;;;;12.68;2.50;;;;;;;;;;5031472;28;20035;-28
2024/04/03 00:13:56;;;;;;;15.90;3.05;;;;;;;;;;5031532;28;20480;-28
2024/04/03 00:16:23;;;;;;;14.95;2.90;;;;;;;;;;5028824;28;20079;-29
2024/04/03 00:18:50;;;;;;;9.07;2.50;;;;;;;;;;5026036;28;20037;-31
2024/04/03 00:21:17;;;;;;;11.00;2.25;;;;;;;;;;5031266;28;20033;-32
2024/04/03 00:23:44;;;;;;;11.98;2.72;;;;;;;;;;5031385;28;20392;-28
2024/04/03 00:26:11;;;;;;;14.07;2.55;;;;;;;;;;5030264;28;20488;-30
2024/04/03 00:28:38;;;;;;;13.27;2.45;;;;;;;;;;5031272;28;20029;-28
2024/04/03 00:31:05;;;;;;;11.77;2.40;;;;;;;;;;5025838;28;20041;-30
2024/04/03 00:33:32;;;;;;;13.85;2.42;;;;;;;;;;5022295;28;20725;-30
2024/04/03 00:36:00;;;;;;;18.08;2.53;;;;;;;;;;5029568;28;20068;-28
2024/04/03 00:38:27;;;;;;;10.30;2.35;;;;;;;;;;5013269;28;20097;-29
2024/04/03 00:40:58;;;;;;;11.27;2.47;;;;;;;;;;5030141;28;20048;-30
2024/04/03 00:43:29;;;;;;;15.73;2.85;;;;;;;;;;5030415;28;20104;-30
2024/04/03 00:45:59;;;;;;;15.57;3.15;;;;;;;;;;5031353;28;20057;-33
2024/04/03 00:48:27;;;;;;;20.90;3.80;;;;;;;;;;5024829;28;20033;-30
2024/04/03 00:50:55;;;;;;;18.48;4.10;;;;;;;;;;5005912;28;20087;-28
2024/04/03 00:53:23;;;;;;;26.95;3.65;;;;;;;;;;5018019;28;20384;-28
2024/04/03 00:55:51;;;;;;;26.70;4.07;;;;;;;;;;5020097;28;20033;-30
2024/04/03 00:58:18;;;;;;;36.00;4.00;;;;;;;;;;5031248;28;20064;-30
2024/04/03 01:00:45;;;;;;;30.98;4.45;;;;;;;;;;5031097;28;20033;-32
2024/04/03 01:03:12;;;;;;;29.50;4.32;;;;;;;;;;5031417;28;20032;-32
2024/04/03 01:05:39;;;;;;;29.80;5.45;;;;;;;;;;5030443;28;20052;-30
2024/04/03 01:08:06;;;;;;;30.08;5.75;;;;;;;;;;5026730;28;20120;-31
2024/04/03 01:10:33;;;;;;;45.95;8.90;;;;;;;;;;5031107;28;20103;-30
2024/04/03 01:13:03;;;;;;;37.17;9.07;;;;;;;;;;5031074;28;20502;-30
2024/04/03 01:15:30;;;;;;;37.38;8.23;;;;;;;;;;5027264;28;20028;-28
2024/04/03 01:17:57;;;;;;;41.05;9.13;;;;;;;;;;5026840;28;20123;-28
2024/04/03 01:20:24;;;;;;;46.10;9.88;;;;;;;;;;5028865;28;20029;-31
2024/04/03 01:22:52;;;;;;;31.67;7.82;;;;;;;;;;5030800;28;20033;-28
2024/04/03 01:25:19;;;;;;;26.83;7.70;;;;;;;;;;5030926;28;20116;-30
2024/04/03 01:27:46;;;;;;;27.40;7.18;;;;;;;;;;5030715;28;20021;-28
2024/04/03 01:30:13;;;;;;;25.70;6.80;;;;;;;;;;5030981;28;20037;-30
2024/04/03 01:32:42;;;;;;;23.27;6.70;;;;;;;;;;5021437;28;20060;-30
2024/04/03 01:35:09;;;;;;;54.40;7.40;;;;;;;;;;5011332;28;20030;-28
2024/04/03 01:37:36;;;;;;;24.05;6.55;;;;;;;;;;5026692;28;20033;-33
2024/04/03 01:40:03;;;;;;;27.23;6.20;;;;;;;;;;5030688;28;20033;-30
2024/04/03 01:42:30;;;;;;;30.95;6.40;;;;;;;;;;5040621;28;20049;-30
2024/04/03 01:44:57;;;;;;;24.45;5.55;;;;;;;;;;5030946;28;20029;-33
2024/04/03 01:47:24;;;;;;;24.08;5.80;;;;;;;;;;5025455;28;20064;-30
2024/04/03 01:49:55;;;;;;;26.63;5.90;;;;;;;;;;5021896;28;20040;-31
2024/04/03 01:52:22;;;;;;;31.60;6.00;;;;;;;;;;5030590;28;20384;-31
2024/04/03 01:54:49;;;;;;;24.10;5.57;;;;;;;;;;5031008;28;20065;-28
2024/04/03 01:57:16;;;;;;;25.80;5.82;;;;;;;;;;5030636;28;20021;-28
2024/04/03 01:59:43;;;;;;;22.05;6.13;;;;;;;;;;5030652;28;20033;-28
2024/04/03 02:02:11;;;;;;;26.65;6.07;;;;;;;;;;5030632;28;20048;-30
2024/04/03 02:04:37;;;;;;;22.83;6.07;;;;;;;;;;5030126;28;20068;-31
2024/04/03 02:07:04;;;;;;;24.80;5.82;;;;;;;;;;5025855;28;20056;-30
2024/04/03 02:09:31;;;;;;;20.80;5.80;;;;;;;;;;5028751;28;20164;-28
2024/04/03 02:11:58;;;;;;;19.13;6.07;;;;;;;;;;5029081;28;20025;-30
2024/04/03 02:14:25;;;;;;;26.60;6.00;;;;;;;;;;5030417;28;20023;-28
2024/04/03 02:16:53;;;;;;;16.67;6.05;;;;;;;;;;5027218;28;20087;-28
2024/04/03 02:19:20;;;;;;;21.13;5.93;;;;;;;;;;5002747;28;20041;-29
2024/04/03 02:21:47;;;;;;;21.27;5.85;;;;;;;;;;5025842;28;20156;-31
2024/04/03 02:24:15;;;;;;;20.88;6.32;;;;;;;;;;5034051;28;20488;-31
2024/04/03 02:26:42;;;;;;;25.17;6.05;;;;;;;;;;5025285;28;20049;-31
2024/04/03 02:29:09;;;;;;;20.80;6.38;;;;;;;;;;5033415;28;20420;-30
2024/04/03 02:31:36;;;;;;;25.30;6.35;;;;;;;;;;5033438;28;20052;-30
2024/04/03 02:34:02;;;;;;;17.35;5.28;;;;;;;;;;5033628;28;20021;-28
2024/04/03 02:36:32;;;;;;;22.02;5.78;;;;;;;;;;5034166;28;20430;-28
2024/04/03 02:38:59;;;;;;;17.30;5.07;;;;;;;;;;5028258;28;20051;-30
2024/04/03 02:41:26;;;;;;;21.55;5.82;;;;;;;;;;5033404;28;20037;-28
2024/04/03 02:43:53;;;;;;;16.92;5.00;;;;;;;;;;5033821;28;20516;-28
2024/04/03 02:46:20;;;;;;;19.20;5.57;;;;;;;;;;5033355;28;20155;-29
2024/04/03 02:48:47;;;;;;;19.75;5.20;;;;;;;;;;5028657;28;20025;-30
2024/04/03 02:51:14;;;;;;;21.10;5.22;;;;;;;;;;5027978;28;20138;-29
2024/04/03 02:53:41;;;;;;;19.23;5.10;;;;;;;;;;5033459;28;20084;-29
2024/04/03 02:56:09;;;;;;;16.23;4.57;;;;;;;;;;5033579;28;20086;-28
2024/04/03 02:58:37;;;;;;;15.32;4.47;;;;;;;;;;5033228;28;20037;-29
2024/04/03 03:01:08;;;;;;;14.45;4.35;;;;;;;;;;5033363;28;20051;-31
2024/04/03 03:03:36;;;;;;;14.80;4.27;;;;;;;;;;5031330;28;20042;-31
2024/04/03 03:06:06;;;;;;;11.95;3.88;;;;;;;;;;5033272;28;20638;-28
2024/04/03 03:08:34;;;;;;;18.75;4.55;;;;;;;;;;5033213;28;20029;-31
2024/04/03 03:11:02;;;;;;;10.05;3.97;;;;;;;;;;5033269;28;20029;-31
2024/04/03 03:13:29;;;;;;;11.57;4.22;;;;;;;;;;5033075;28;20547;-31
2024/04/03 03:15:57;;;;;;;12.13;4.47;;;;;;;;;;5033245;28;20121;-31
2024/04/03 03:18:26;;;;;;;12.52;4.05;;;;;;;;;;5029238;28;20033;-31
2024/04/03 03:20:53;;;;;;;11.40;3.92;;;;;;;;;;5021940;28;20037;-31
2024/04/03 03:23:20;;;;;;;13.98;4.05;;;;;;;;;;5031950;28;20049;-29
2024/04/03 03:25:48;;;;;;;12.45;4.28;;;;;;;;;;5033102;28;20034;-28
2024/04/03 03:28:16;;;;;;;11.45;4.28;;;;;;;;;;5032037;28;20021;-29
2024/04/03 03:30:49;;;;;;;8.48;3.60;;;;;;;;;;5032091;28;20048;-29
2024/04/03 03:33:16;;;;;;;14.63;3.80;;;;;;;;;;5030544;28;20073;-29
2024/04/03 03:35:49;;;;;;;14.82;4.22;;;;;;;;;;5032673;28;20039;-31
2024/04/03 03:38:18;;;;;;;11.63;3.78;;;;;;;;;;5031880;28;20476;-29
2024/04/03 03:40:46;;;;;;;15.20;4.13;;;;;;;;;;5031541;28;20082;-30
2024/04/03 03:43:13;;;;;;;11.95;4.00;;;;;;;;;;5031980;28;20067;-31
2024/04/03 03:45:44;;;;;;;11.45;3.50;;;;;;;;;;5032073;28;20025;-30
2024/04/03 03:48:11;;;;;;;10.30;3.60;;;;;;;;;;5030333;28;20578;-29
2024/04/03 03:53:23;;;;;;;12.70;3.53;;;;;;;;;;5029596;28;20122;-29
2024/04/03 03:55:50;;;;;;;10.55;3.53;;;;;;;;;;5031752;28;20037;-29
2024/04/03 03:58:18;;;;;;;12.50;3.42;;;;;;;;;;5031891;28;20036;-31
2024/04/03 04:00:45;;;;;;;9.70;3.40;;;;;;;;;;5031737;28;20034;-31
2024/04/03 04:03:12;;;;;;;10.82;3.65;;;;;;;;;;5031662;28;20029;-31
2024/04/03 04:05:39;;;;;;;8.15;3.53;;;;;;;;;;5032208;28;20075;-31
2024/04/03 04:08:06;;;;;;;7.43;3.25;;;;;;;;;;5032245;28;20104;-31
2024/04/03 04:10:33;;;;;;;11.98;2.97;;;;;;;;;;5032295;28;20119;-31
2024/04/03 04:13:00;;;;;;;9.57;3.00;;;;;;;;;;5032335;28;20038;-31
2024/04/03 04:15:27;;;;;;;10.88;3.38;;;;;;;;;;5032250;28;20068;-31
2024/04/03 04:17:54;;;;;;;8.95;3.00;;;;;;;;;;5032142;28;20034;-31
2024/04/03 04:20:21;;;;;;;9.75;3.15;;;;;;;;;;5032036;28;20033;-31
2024/04/03 04:22:48;;;;;;;8.68;3.28;;;;;;;;;;5032087;28;20041;-31
2024/04/03 04:25:15;;;;;;;8.90;3.42;;;;;;;;;;5032119;28;20071;-31
2024/04/03 04:27:42;;;;;;;9.32;3.17;;;;;;;;;;5032029;28;20377;-31
2024/04/03 04:30:09;;;;;;;6.72;2.75;;;;;;;;;;5032020;28;20041;-31
2024/04/03 04:32:36;;;;;;;8.43;2.90;;;;;;;;;;5031849;28;20051;-31
2024/04/03 04:35:03;;;;;;;8.73;3.30;;;;;;;;;;5031917;28;20029;-31
2024/04/03 04:37:30;;;;;;;10.02;3.33;;;;;;;;;;5031855;28;20036;-31
2024/04/03 04:39:57;;;;;;;10.57;2.95;;;;;;;;;;5031437;28;20049;-31
2024/04/03 04:42:24;;;;;;;9.35;2.92;;;;;;;;;;5031509;28;20041;-31
2024/04/03 04:44:52;;;;;;;10.43;3.03;;;;;;;;;;5031823;28;20036;-31
2024/04/03 04:47:19;;;;;;;8.02;2.50;;;;;;;;;;5031547;28;20047;-31
2024/04/03 04:49:46;;;;;;;8.40;2.85;;;;;;;;;;5031660;28;20484;-31
2024/04/03 04:52:12;;;;;;;10.30;3.08;;;;;;;;;;5031793;28;20029;-31
2024/04/03 04:54:39;;;;;;;8.98;3.03;;;;;;;;;;5031766;28;20037;-30
2024/04/03 04:57:09;;;;;;;7.78;2.83;;;;;;;;;;5031592;28;20091;-30
2024/04/03 04:59:37;;;;;;;6.60;2.85;;;;;;;;;;5031382;28;20040;-31
2024/04/03 05:02:04;;;;;;;8.13;3.20;;;;;;;;;;5031497;28;20037;-31
2024/04/03 05:04:31;;;;;;;10.75;2.80;;;;;;;;;;5031548;28;20159;-32
2024/04/03 05:07:00;;;;;;;10.82;2.88;;;;;;;;;;5031503;28;20503;-31
2024/04/03 05:09:28;;;;;;;11.95;2.90;;;;;;;;;;5031343;28;20480;-31
2024/04/03 05:11:55;;;;;;;13.88;3.25;;;;;;;;;;5031470;28;20030;-30
2024/04/03 05:14:22;;;;;;;10.02;3.00;;;;;;;;;;5030247;28;20021;-31
2024/04/03 05:16:49;;;;;;;10.25;3.00;;;;;;;;;;5031345;28;20763;-31
2024/04/03 05:19:16;;;;;;;11.40;3.22;;;;;;;;;;5031428;28;20032;-31
2024/04/03 05:21:43;;;;;;;8.65;3.42;;;;;;;;;;5031348;28;20242;-31
2024/04/03 05:24:10;;;;;;;8.40;2.65;;;;;;;;;;5031279;28;20065;-31
2024/04/03 05:26:37;;;;;;;9.85;2.90;;;;;;;;;;5031215;28;20021;-31
2024/04/03 05:29:05;;;;;;;10.13;2.90;;;;;;;;;;5031371;28;20080;-31
2024/04/03 05:31:32;;;;;;;9.65;3.00;;;;;;;;;;5031089;28;20037;-30
2024/04/03 05:34:04;;;;;;;8.32;3.03;;;;;;;;;;5031374;28;20041;-30
2024/04/03 05:36:31;;;;;;;7.95;3.00;;;;;;;;;;5031213;28;20025;-31
2024/04/03 05:38:58;;;;;;;8.18;2.80;;;;;;;;;;5031135;28;20104;-31
2024/04/03 05:41:26;;;;;;;6.63;2.55;;;;;;;;;;5031054;28;20400;-29
2024/04/03 05:43:53;;;;;;;5.38;2.55;;;;;;;;;;5031245;28;20022;-28
2024/04/03 05:46:20;;;;;;;10.30;2.95;;;;;;;;;;5031518;28;20032;-28
2024/04/03 05:48:47;;;;;;;7.78;2.63;;;;;;;;;;5031092;28;20092;-28
2024/04/03 05:51:14;;;;;;;8.95;2.83;;;;;;;;;;5031111;28;20112;-28
2024/04/03 05:53:41;;;;;;;6.78;2.85;;;;;;;;;;5034977;28;20441;-28
2024/04/03 05:56:08;;;;;;;9.02;2.92;;;;;;;;;;5034910;28;20033;-28
2024/04/03 05:58:35;;;;;;;6.60;2.85;;;;;;;;;;5034696;28;20041;-28
2024/04/03 06:01:03;;;;;;;5.45;2.47;;;;;;;;;;5036764;28;20052;-29
2024/04/03 06:03:30;;;;;;;7.97;2.90;;;;;;;;;;5054425;28;20404;-29
2024/04/03 06:05:58;;;;;;;8.65;3.20;;;;;;;;;;5054616;28;20037;-28
2024/04/03 06:08:26;;;;;;;14.00;2.83;;;;;;;;;;5054519;28;20399;-29
2024/04/03 06:10:53;;;;;;;8.48;2.88;;;;;;;;;;5054544;28;20131;-28
2024/04/03 06:13:20;;;;;;;9.43;3.00;;;;;;;;;;5054519;28;20021;-28
2024/04/03 06:15:47;;;;;;;10.55;2.85;;;;;;;;;;5054405;28;20029;-28
2024/04/03 06:18:14;;;;;;;10.68;2.97;;;;;;;;;;5054181;28;20120;-28
2024/04/03 06:20:41;;;;;;;5.28;2.67;;;;;;;;;;5054316;28;20095;-28
2024/04/03 06:23:13;;;;;;;9.15;2.70;;;;;;;;;;5041698;28;20041;-31
2024/04/03 06:25:40;;;;;;;6.00;2.72;;;;;;;;;;5034139;28;20029;-31
2024/04/03 06:28:07;;;;;;;5.72;2.72;;;;;;;;;;5034064;28;20037;-31
2024/04/03 06:30:34;;;;;;;6.90;2.78;;;;;;;;;;5034186;28;20033;-31
2024/04/03 06:33:01;;;;;;;8.23;3.03;;;;;;;;;;5033911;28;20415;-31
2024/04/03 06:35:28;;;;;;;7.82;2.92;;;;;;;;;;5034110;28;20030;-31
2024/04/03 06:37:55;;;;;;;6.20;2.35;;;;;;;;;;5034075;28;20041;-30
2024/04/03 06:40:24;;;;;;;8.77;2.58;;;;;;;;;;5034147;28;20092;-31
2024/04/03 06:42:50;;;;;;;6.75;2.70;;;;;;;;;;5033902;28;20506;-30
2024/04/03 06:45:17;;;;;;;7.68;2.40;;;;;;;;;;5033896;28;20044;-30
2024/04/03 06:47:48;;;;;;;6.07;2.45;;;;;;;;;;5033855;28;20029;-31
2024/04/03 06:50:15;;;;;;;8.48;2.65;;;;;;;;;;5033928;28;20029;-30
2024/04/03 06:52:42;;;;;;;5.88;2.53;;;;;;;;;;5033882;28;20037;-30
2024/04/03 06:55:09;;;;;;;5.15;2.67;;;;;;;;;;5033834;28;20396;-31
2024/04/03 06:57:36;;;;;;;12.05;2.80;;;;;;;;;;5033708;28;20021;-31
2024/04/03 07:00:03;;;;;;;6.72;2.60;;;;;;;;;;5033695;28;20527;-31
2024/04/03 07:02:30;;;;;;;5.95;2.30;;;;;;;;;;5032348;28;20615;-31
2024/04/03 07:04:57;;;;;;;6.55;2.53;;;;;;;;;;5032832;28;20543;-31
2024/04/03 07:07:24;;;;;;;7.55;2.33;;;;;;;;;;5033455;28;20029;-31
2024/04/03 07:09:51;;;;;;;5.53;1.98;;;;;;;;;;5033593;28;20021;-31
2024/04/03 07:12:18;;;;;;;4.50;2.42;;;;;;;;;;5033543;28;20033;-31
2024/04/03 07:14:45;;;;;;;6.68;2.72;;;;;;;;;;5033454;28;20480;-31
2024/04/03 07:17:12;;;;;;;5.82;2.50;;;;;;;;;;5033339;28;20045;-31
2024/04/03 07:19:39;;;;;;;9.13;2.60;;;;;;;;;;5031933;28;20033;-30
2024/04/03 07:22:07;;;;;;;4.57;2.58;;;;;;;;;;5033275;28;20491;-31
2024/04/03 07:24:34;;;;;;;6.82;2.20;;;;;;;;;;5031705;28;20037;-31
2024/04/03 07:27:01;;;;;;;6.20;2.22;;;;;;;;;;5033220;28;20435;-30
2024/04/03 07:29:28;;;;;;;6.00;2.50;;;;;;;;;;5033146;28;20083;-31
2024/04/03 07:31:55;;;;;;;4.55;2.42;;;;;;;;;;5032917;28;20507;-31
2024/04/03 07:34:22;;;;;;;6.10;2.30;;;;;;;;;;5033095;28;20515;-30
2024/04/03 07:36:49;;;;;;;5.32;2.15;;;;;;;;;;5032929;28;20024;-31
2024/04/03 07:39:16;;;;;;;5.55;2.50;;;;;;;;;;5032972;28;20088;-30
2024/04/03 07:41:44;;;;;;;8.55;2.33;;;;;;;;;;5032864;28;20069;-31
2024/04/03 07:44:16;;;;;;;5.07;2.50;;;;;;;;;;5032939;28;20069;-31
2024/04/03 07:46:43;;;;;;;5.80;2.40;;;;;;;;;;5032606;28;20045;-30
2024/04/03 07:49:10;;;;;;;4.45;2.30;;;;;;;;;;5032815;28;20511;-31
2024/04/03 07:51:37;;;;;;;10.00;2.75;;;;;;;;;;5032574;28;20040;-30
2024/04/03 07:54:04;;;;;;;7.93;2.63;;;;;;;;;;5032585;28;20025;-31
2024/04/03 07:56:31;;;;;;;7.63;3.03;;;;;;;;;;5032563;28;20028;-30
2024/04/03 07:58:58;;;;;;;6.57;3.20;;;;;;;;;;5032599;28;20391;-31
2024/04/03 08:04:36;;;;;;;9.90;3.47;;;;;;;;;;5034351;28;20029;-30
2024/04/03 08:10:13;;;;;;;7.53;2.90;;;;;;;;;;5034309;28;20550;-31
2024/04/03 08:12:40;;;;;;;6.75;3.70;;;;;;;;;;5032375;28;20029;-28
2024/04/03 08:15:13;;;;;;;8.10;3.20;;;;;;;;;;5032157;28;20033;-28
2024/04/03 08:17:40;;;;;;;8.70;3.40;;;;;;;;;;5032061;28;20459;-28
2024/04/03 08:20:07;;;;;;;7.53;3.22;;;;;;;;;;5032118;28;20030;-29
2024/04/03 08:22:34;;;;;;;6.35;3.00;;;;;;;;;;5032065;28;20135;-28
2024/04/03 08:25:02;;;;;;;8.55;3.92;;;;;;;;;;5032071;28;20431;-28
2024/04/03 08:27:32;;;;;;;10.10;4.55;;;;;;;;;;5031774;28;20396;-29
2024/04/03 08:29:59;;;;;;;8.93;4.18;;;;;;;;;;5032046;28;20029;-28
2024/04/03 08:32:26;;;;;;;9.93;4.63;;;;;;;;;;5031875;28;20492;-28
2024/04/03 08:34:53;;;;;;;12.55;4.85;;;;;;;;;;5030559;28;20496;-29
2024/04/03 08:37:20;;;;;;;12.73;5.18;;;;;;;;;;5031792;28;20017;-28
2024/04/03 08:39:57;;;;;;;10.60;4.60;;;;;;;;;;5031841;28;20030;-30
2024/04/03 08:42:25;;;;;;;10.00;5.80;;;;;;;;;;5031649;28;20060;-30
2024/04/03 08:44:52;;;;;;;10.55;5.00;;;;;;;;;;5031897;28;20065;-31
2024/04/03 08:47:21;;;;;;;13.02;5.05;;;;;;;;;;5031429;28;20026;-28
2024/04/03 08:49:48;;;;;;;9.45;4.82;;;;;;;;;;5031792;28;20369;-29
2024/04/03 08:52:15;;;;;;;13.23;5.38;;;;;;;;;;5031659;28;20057;-28
2024/04/03 08:54:43;;;;;;;8.45;4.95;;;;;;;;;;5031748;28;20112;-28
2024/04/03 08:57:10;;;;;;;11.82;4.65;;;;;;;;;;5031624;28;20171;-28
2024/04/03 08:59:38;;;;;;;12.57;5.45;;;;;;;;;;5031700;28;20029;-28
2024/04/03 09:02:05;;;;;;;9.57;4.90;;;;;;;;;;5031283;28;20044;-31
2024/04/03 09:04:33;;;;;;;10.48;5.13;;;;;;;;;;5031516;28;20176;-31
2024/04/03 09:07:01;;;;;;;9.70;4.75;;;;;;;;;;5031542;28;20030;-30
2024/04/03 09:09:29;;;;;;;12.52;4.68;;;;;;;;;;5031458;28;20057;-31
2024/04/03 09:12:03;;;;;;;11.13;4.63;;;;;;;;;;5031528;28;20034;-30
2024/04/03 09:14:30;;;;;;;10.55;4.55;;;;;;;;;;5031500;28;20041;-30
2024/04/03 09:17:01;;;;;;;11.98;4.35;;;;;;;;;;5031321;28;20113;-31
2024/04/03 09:19:29;;;;;;;9.32;4.10;;;;;;;;;;5031435;28;20100;-31
2024/04/03 09:21:56;;;;;;;11.40;4.07;;;;;;;;;;5031319;28;20488;-30
2024/04/03 09:24:24;;;;;;;8.25;3.95;;;;;;;;;;5031356;28;20033;-31
2024/04/03 09:26:51;;;;;;;13.00;4.15;;;;;;;;;;5032090;28;20037;-30
2024/04/03 09:29:19;;;;;;;11.63;3.70;;;;;;;;;;5034660;28;20051;-31
2024/04/03 09:31:47;;;;;;;7.10;2.92;;;;;;;;;;5050269;28;20041;-30
2024/04/03 09:34:14;;;;;;;11.00;3.15;;;;;;;;;;5054392;28;20419;-31
2024/04/03 09:36:42;;;;;;;7.00;2.97;;;;;;;;;;5051787;28;20028;-31
2024/04/03 09:39:10;;;;;;;9.57;3.22;;;;;;;;;;5052344;28;20479;-31
2024/04/03 09:41:38;;;;;;;6.90;2.90;;;;;;;;;;5054982;28;20028;-31
2024/04/03 09:44:06;;;;;;;7.10;2.67;;;;;;;;;;5054175;28;20043;-31
2024/04/03 09:46:46;;;;;;;10.02;2.85;;;;;;;;;;5036479;28;20060;-28
2024/04/03 09:49:14;;;;;;;8.65;2.85;;;;;;;;;;5034979;28;20533;-29
2024/04/03 09:51:41;;;;;;;9.98;3.00;;;;;;;;;;5035130;28;20032;-29
2024/04/03 09:54:10;;;;;;;8.82;2.75;;;;;;;;;;5034919;28;20021;-29
2024/04/03 09:56:38;;;;;;;9.88;2.55;;;;;;;;;;5034716;28;20033;-29
2024/04/03 09:59:07;;;;;;;11.55;2.72;;;;;;;;;;5034933;28;20384;-29
2024/04/03 10:01:36;;;;;;;12.65;2.53;;;;;;;;;;5034824;28;20121;-28
2024/04/03 10:04:06;;;;;;;11.88;2.47;;;;;;;;;;5034895;28;20033;-29
2024/04/03 10:06:37;;;;;;;10.00;2.03;;;;;;;;;;5034573;28;20447;-28
2024/04/03 10:09:24;;;;;;;15.07;2.50;;;;;;;;;;5038453;28;20035;-31
2024/04/03 10:12:00;;;;;;;12.85;2.28;;;;;;;;;;5038033;28;20033;-29
2024/04/03 10:14:33;;;;;;;9.52;2.38;;;;;;;;;;5034472;28;20038;-29
2024/04/03 10:17:02;;;;;;;12.52;2.10;;;;;;;;;;5034629;28;20044;-29
2024/04/03 10:19:32;;;;;;;9.32;2.08;;;;;;;;;;5034630;28;20025;-29
2024/04/03 10:22:02;;;;;;;8.65;1.73;;;;;;;;;;5034518;28;20030;-29
2024/04/03 10:24:30;;;;;;;15.02;1.88;;;;;;;;;;5034418;28;20037;-29
2024/04/03 10:26:57;;;;;;;11.13;2.15;;;;;;;;;;5034298;28;20030;-29
2024/04/03 10:29:24;;;;;;;11.75;1.88;;;;;;;;;;5033722;28;20032;-29
2024/04/03 10:31:51;;;;;;;11.52;2.05;;;;;;;;;;5034058;28;20512;-29
2024/04/03 10:34:19;;;;;;;14.20;2.33;;;;;;;;;;5033712;28;20060;-29
2024/04/03 10:36:47;;;;;;;11.90;1.75;;;;;;;;;;5033192;28;20021;-29
2024/04/03 10:39:14;;;;;;;6.90;1.90;;;;;;;;;;5032204;28;20026;-31
2024/04/03 10:41:42;;;;;;;10.75;1.95;;;;;;;;;;5034169;28;20454;-31
2024/04/03 10:44:12;;;;;;;13.80;2.10;;;;;;;;;;5033966;28;20069;-31
2024/04/03 10:46:39;;;;;;;6.88;1.80;;;;;;;;;;5034008;28;20049;-31
2024/04/03 10:49:06;;;;;;;12.88;2.25;;;;;;;;;;5034935;28;20035;-31
2024/04/03 10:51:33;;;;;;;15.50;2.28;;;;;;;;;;5043362;28;20087;-32
2024/04/03 10:54:00;;;;;;;17.15;3.55;;;;;;;;;;5033950;28;20483;-28
2024/04/03 10:56:27;;;;;;;18.75;3.38;;;;;;;;;;5033802;28;20554;-28
2024/04/03 10:58:56;;;;;;;10.07;2.60;;;;;;;;;;5033762;28;20025;-28
2024/04/03 11:01:24;;;;;;;11.05;2.83;;;;;;;;;;5033159;28;20040;-31
2024/04/03 11:03:51;;;;;;;14.38;2.92;;;;;;;;;;5033563;28;20045;-30
2024/04/03 11:06:23;;;;;;;11.75;3.03;;;;;;;;;;5033548;28;20028;-30
2024/04/03 11:08:50;;;;;;;9.90;2.55;;;;;;;;;;5033749;28;20392;-30
2024/04/03 11:11:18;;;;;;;12.45;3.00;;;;;;;;;;5032755;28;20056;-33
2024/04/03 11:13:48;;;;;;;11.63;3.17;;;;;;;;;;5032289;28;20034;-30
2024/04/03 11:16:15;;;;;;;8.55;2.70;;;;;;;;;;5032646;28;20100;-33
2024/04/03 11:18:43;;;;;;;8.75;3.03;;;;;;;;;;5032850;28;20055;-30
2024/04/03 11:21:11;;;;;;;11.32;2.92;;;;;;;;;;5033172;28;20043;-30
2024/04/03 11:23:38;;;;;;;9.50;2.50;;;;;;;;;;5032444;28;20029;-30
2024/04/03 11:26:05;;;;;;;7.35;2.70;;;;;;;;;;5030194;28;20028;-30
2024/04/03 11:28:33;;;;;;;9.75;2.60;;;;;;;;;;5032750;28;20419;-33
2024/04/03 11:31:00;;;;;;;8.00;2.30;;;;;;;;;;5032613;28;20029;-31
2024/04/03 11:33:31;;;;;;;11.90;2.55;;;;;;;;;;5032410;28;20435;-30
2024/04/03 11:35:58;;;;;;;8.75;2.53;;;;;;;;;;5032334;28;21473;-30
2024/04/03 11:38:27;;;;;;;8.02;2.60;;;;;;;;;;5030010;28;20439;-30
2024/04/03 11:40:54;;;;;;;10.82;2.17;;;;;;;;;;5032096;28;20041;-33
2024/04/03 11:43:20;;;;;;;9.68;2.63;;;;;;;;;;5032316;28;20040;-31
2024/04/03 11:45:47;;;;;;;14.27;3.15;;;;;;;;;;5032327;28;20384;-33
2024/04/03 11:48:15;;;;;;;11.77;2.08;;;;;;;;;;5032171;28;20480;-33
2024/04/03 11:50:42;;;;;;;8.98;2.45;;;;;;;;;;5031799;28;20104;-30
2024/04/03 11:53:09;;;;;;;10.70;2.97;;;;;;;;;;5032074;28;20067;-30
2024/04/03 11:55:36;;;;;;;9.57;2.35;;;;;;;;;;5032313;28;20025;-32
2024/04/03 11:58:03;;;;;;;13.10;2.63;;;;;;;;;;5032093;28;20480;-33
2024/04/03 12:00:30;;;;;;;14.25;3.03;;;;;;;;;;5031346;28;20120;-32
2024/04/03 12:02:57;;;;;;;13.07;3.30;;;;;;;;;;5031764;28;20051;-33
2024/04/03 12:05:24;;;;;;;12.73;2.53;;;;;;;;;;5032484;28;20683;-30
2024/04/03 12:07:51;;;;;;;17.33;3.20;;;;;;;;;;5031490;28;20083;-32
2024/04/03 12:10:18;;;;;;;12.15;2.42;;;;;;;;;;5032210;28;20494;-30
2024/04/03 12:12:46;;;;;;;17.27;2.90;;;;;;;;;;5032195;28;20403;-30
2024/04/03 12:15:13;;;;;;;12.70;3.53;;;;;;;;;;5032155;28;20061;-30
2024/04/03 12:17:40;;;;;;;11.63;3.17;;;;;;;;;;5032228;28;20043;-30
2024/04/03 12:20:08;;;;;;;11.75;2.70;;;;;;;;;;5032141;28;20041;-30
2024/04/03 12:22:35;;;;;;;15.50;2.78;;;;;;;;;;5032183;28;20513;-30
2024/04/03 12:25:02;;;;;;;14.73;2.47;;;;;;;;;;5032138;28;20060;-30
2024/04/03 12:27:29;;;;;;;15.45;3.03;;;;;;;;;;5032166;28;20037;-30
2024/04/03 12:29:57;;;;;;;14.70;3.03;;;;;;;;;;5032155;28;20032;-30
2024/04/03 12:32:24;;;;;;;9.88;2.80;;;;;;;;;;5031969;28;20466;-30
2024/04/03 12:34:53;;;;;;;14.90;3.13;;;;;;;;;;5031885;28;20038;-30
2024/04/03 12:37:20;;;;;;;14.30;2.67;;;;;;;;;;5031727;28;20476;-30
2024/04/03 12:39:47;;;;;;;14.55;2.88;;;;;;;;;;5032019;28;20032;-30
2024/04/03 12:42:14;;;;;;;10.18;2.53;;;;;;;;;;5031859;28;20167;-30
2024/04/03 12:44:41;;;;;;;11.23;2.65;;;;;;;;;;5031954;28;20100;-30
2024/04/03 12:47:08;;;;;;;14.85;2.97;;;;;;;;;;5031765;28;20399;-31
2024/04/03 12:49:35;;;;;;;13.75;2.75;;;;;;;;;;5030379;28;20116;-30
2024/04/03 12:52:02;;;;;;;8.18;2.70;;;;;;;;;;5031858;28;20101;-30
2024/04/03 12:54:29;;;;;;;10.40;2.70;;;;;;;;;;5031767;28;20033;-30
2024/04/03 12:56:57;;;;;;;9.18;2.47;;;;;;;;;;5031457;28;20079;-30
2024/04/03 12:59:24;;;;;;;9.98;2.38;;;;;;;;;;5031728;28;20455;-30
2024/04/03 13:01:51;;;;;;;6.47;2.42;;;;;;;;;;5030867;28;20067;-30
2024/04/03 13:04:19;;;;;;;9.32;2.13;;;;;;;;;;5031634;28;20033;-30
2024/04/03 13:06:46;;;;;;;12.25;2.85;;;;;;;;;;5031520;28;20025;-30
2024/04/03 13:09:12;;;;;;;8.85;2.38;;;;;;;;;;5031615;28;20365;-30
2024/04/03 13:11:43;;;;;;;9.45;2.20;;;;;;;;;;5031605;28;20029;-30
2024/04/03 13:14:10;;;;;;;6.20;2.40;;;;;;;;;;5031397;28;20033;-30
2024/04/03 13:16:38;;;;;;;11.00;2.70;;;;;;;;;;5031479;28;20032;-30
2024/04/03 13:19:06;;;;;;;6.95;2.33;;;;;;;;;;5031356;28;20040;-30
2024/04/03 13:21:33;;;;;;;10.60;2.70;;;;;;;;;;5031415;28;20025;-30
2024/04/03 13:24:00;;;;;;;9.27;2.40;;;;;;;;;;5031513;28;20037;-30
2024/04/03 13:26:28;;;;;;;8.32;2.75;;;;;;;;;;5031301;28;20026;-30
2024/04/03 13:28:55;;;;;;;7.90;2.45;;;;;;;;;;5031424;28;20029;-30
2024/04/03 13:31:23;;;;;;;8.98;2.47;;;;;;;;;;5031431;28;20084;-30
2024/04/03 13:33:50;;;;;;;6.45;2.22;;;;;;;;;;5031059;28;20568;-30
2024/04/03 13:36:18;;;;;;;9.35;2.70;;;;;;;;;;5031308;28;20040;-30
2024/04/03 13:38:45;;;;;;;11.70;2.38;;;;;;;;;;5031165;28;20172;-30
2024/04/03 13:41:13;;;;;;;5.57;1.92;;;;;;;;;;5031261;28;20511;-30
2024/04/03 13:43:40;;;;;;;8.10;2.38;;;;;;;;;;5031116;28;20095;-30
2024/04/03 13:46:09;;;;;;;5.47;2.08;;;;;;;;;;5031016;28;20494;-30
2024/04/03 13:48:36;;;;;;;8.98;2.20;;;;;;;;;;5031074;28;20036;-30
2024/04/03 13:51:05;;;;;;;8.23;2.35;;;;;;;;;;5031206;28;20075;-30
2024/04/03 13:53:32;;;;;;;5.38;2.10;;;;;;;;;;5031044;28;20061;-30
2024/04/03 13:56:03;;;;;;;7.70;1.80;;;;;;;;;;5031105;28;20028;-30
2024/04/03 13:58:30;;;;;;;6.50;1.92;;;;;;;;;;5031188;28;20025;-30
2024/04/03 14:01:01;;;;;;;6.85;2.08;;;;;;;;;;5031021;28;20495;-30
2024/04/03 14:03:31;;;;;;;8.35;1.92;;;;;;;;;;5030964;28;20033;-30
2024/04/03 14:05:59;;;;;;;5.70;1.90;;;;;;;;;;5030987;28;20022;-30
2024/04/03 14:08:26;;;;;;;5.63;2.28;;;;;;;;;;5031077;28;20030;-30
2024/04/03 14:10:53;;;;;;;6.38;2.03;;;;;;;;;;5031014;28;20080;-33
2024/04/03 14:13:20;;;;;;;5.28;2.00;;;;;;;;;;5032633;28;20064;-30
2024/04/03 14:15:47;;;;;;;5.25;1.98;;;;;;;;;;5034537;28;20439;-30
2024/04/03 14:18:17;;;;;;;7.55;2.10;;;;;;;;;;5034576;28;20029;-30
2024/04/03 14:20:45;;;;;;;5.47;1.80;;;;;;;;;;5034524;28;20029;-31
2024/04/03 14:23:13;;;;;;;6.32;1.65;;;;;;;;;;5033128;28;20041;-30
2024/04/03 14:25:43;;;;;;;8.85;1.90;;;;;;;;;;5033742;28;20037;-30
2024/04/03 14:28:10;;;;;;;4.80;1.38;;;;;;;;;;5034361;28;20025;-30
2024/04/03 14:30:40;;;;;;;4.15;1.50;;;;;;;;;;5034421;28;20032;-30
2024/04/03 14:33:08;;;;;;;6.95;1.80;;;;;;;;;;5033953;28;20049;-30
2024/04/03 14:35:35;;;;;;;6.40;1.98;;;;;;;;;;5034165;28;20033;-30
2024/04/03 14:38:05;;;;;;;6.85;1.80;;;;;;;;;;5034244;28;20434;-30
2024/04/03 14:40:32;;;;;;;4.82;2.05;;;;;;;;;;5034335;28;20034;-30
2024/04/03 14:43:04;;;;;;;4.90;1.65;;;;;;;;;;5034096;28;20125;-31
2024/04/03 14:45:31;;;;;;;5.93;1.63;;;;;;;;;;5033905;28;20522;-30
2024/04/03 14:47:58;;;;;;;6.90;1.70;;;;;;;;;;5033995;28;20025;-30